createdAt,value
2019-04-10T00:02:09.062Z,97905.00
2019-04-10T00:04:49.823Z,97908.00
2019-04-10T00:07:31.314Z,97905.00
2019-04-10T00:10:11.881Z,97907.00
2019-04-10T00:12:52.552Z,97901.00
2019-04-10T00:15:33.184Z,97909.00
2019-04-10T00:18:14.149Z,97898.00
2019-04-10T00:20:56.621Z,97914.00
2019-04-10T00:23:37.741Z,97895.00
2019-04-10T00:26:19.188Z,97865.00
2019-04-10T00:29:00.238Z,97892.00
2019-04-10T00:31:42.227Z,97891.00
2019-04-10T00:34:23.340Z,97929.00
2019-04-10T00:37:04.615Z,97792.00
2019-04-10T00:39:45.252Z,97931.00
2019-04-10T00:42:27.485Z,97890.00
2019-04-10T00:45:09.095Z,97885.00
2019-04-10T00:47:49.834Z,97920.00
2019-04-10T00:50:30.743Z,97890.00
2019-04-10T00:53:12.733Z,97879.00
2019-04-10T00:55:54.338Z,97876.00
2019-04-10T00:58:35.661Z,97923.00
2019-04-10T01:01:16.285Z,97882.00
2019-04-10T01:03:58.000Z,97885.00
2019-04-10T01:06:39.892Z,97887.00
2019-04-10T03:37:49.500Z,97872.00
2019-04-10T03:40:31.267Z,97906.00
2019-04-10T03:43:12.049Z,97878.00
2019-04-10T03:45:53.172Z,97878.00
2019-04-10T03:48:34.078Z,97887.00
2019-04-10T03:51:16.550Z,97875.00
2019-04-10T03:53:58.374Z,97873.00
2019-04-10T03:56:40.149Z,97915.00
2019-04-10T03:59:22.280Z,97878.00
2019-04-10T04:02:05.222Z,97884.00
2019-04-10T04:04:46.695Z,97888.00
2019-04-10T04:07:28.333Z,97886.00
2019-04-10T04:10:10.760Z,97880.00
2019-04-10T04:12:52.892Z,97875.00
2019-04-10T04:15:33.945Z,97928.00
2019-04-10T04:18:15.381Z,97896.00
2019-04-10T04:20:56.143Z,97882.00
2019-04-10T04:23:38.309Z,97888.00
2019-04-10T04:26:19.439Z,97853.00
2019-04-10T04:29:00.419Z,97903.00
2019-04-10T04:31:42.010Z,97889.00
2019-04-10T04:34:23.177Z,97934.00
2019-04-10T04:37:04.500Z,97933.00
2019-04-10T04:39:45.618Z,97898.00
2019-04-10T04:42:26.514Z,97901.00
2019-04-10T04:45:08.698Z,97899.00
2019-04-10T04:47:50.319Z,97870.00
2019-04-10T04:50:31.622Z,97911.00
2019-04-10T04:53:16.469Z,97919.00
2019-04-10T04:56:00.139Z,97961.00
2019-04-10T04:58:40.987Z,97931.00
2019-04-10T05:01:23.094Z,97921.00
2019-04-10T05:04:04.714Z,97848.00
2019-04-10T05:06:45.854Z,97926.00
2019-04-10T05:09:33.778Z,97928.00
2019-04-10T05:12:11.126Z,97981.00
2019-04-10T05:14:53.630Z,97934.00
2019-04-10T05:17:35.155Z,97943.00
2019-04-10T05:20:16.990Z,97981.00
2019-04-10T05:22:57.861Z,97936.00
2019-04-10T05:25:39.288Z,97947.00
2019-04-10T05:28:20.418Z,97946.00
2019-04-10T05:31:03.004Z,97946.00
2019-04-10T05:33:44.959Z,97962.00
2019-04-10T05:36:26.062Z,97955.00
2019-04-10T05:39:06.706Z,97959.00
2019-04-10T05:41:48.369Z,97962.00
2019-04-10T05:44:29.112Z,97965.00
2019-04-10T05:47:10.344Z,97974.00
2019-04-10T05:49:51.405Z,97919.00
2019-04-10T05:52:33.225Z,98003.00
2019-04-10T05:55:14.112Z,97971.00
2019-04-10T05:57:57.988Z,97968.00
2019-04-10T06:00:38.881Z,97969.00
2019-04-10T06:03:20.727Z,98013.00
2019-04-10T06:06:02.028Z,98007.00
2019-04-10T06:08:43.544Z,97964.00
2019-04-10T06:11:24.695Z,97972.00
2019-04-10T06:17:04.422Z,97985.00
2019-04-10T06:19:45.096Z,97979.00
2019-04-10T06:22:26.463Z,97979.00
2019-04-10T06:25:09.168Z,97974.00
2019-04-10T06:27:50.591Z,98001.00
2019-04-10T06:30:32.283Z,97984.00
2019-04-10T06:33:13.749Z,97984.00
2019-04-10T06:35:55.135Z,97983.00
2019-04-10T06:38:37.153Z,97980.00
2019-04-10T06:41:19.119Z,97982.00
2019-04-10T06:44:01.423Z,98024.00
2019-04-10T06:46:42.749Z,97945.00
2019-04-10T06:49:24.799Z,97987.00
2019-04-10T06:52:06.126Z,98009.00
2019-04-10T06:54:47.056Z,97984.00
2019-04-10T06:57:28.559Z,97952.00
2019-04-10T07:00:14.479Z,97905.00
2019-04-10T07:02:54.676Z,97993.00
2019-04-10T07:05:43.331Z,97994.00
2019-04-10T07:08:22.180Z,97998.00
2019-04-10T07:11:08.166Z,98003.00
2019-04-10T07:13:44.990Z,98012.00
2019-04-10T07:16:28.935Z,98031.00
2019-04-10T07:19:11.210Z,97999.00
2019-04-10T07:21:51.250Z,98043.00
2019-04-10T07:24:36.998Z,98007.00
2019-04-10T07:27:15.979Z,97986.00
2019-04-10T07:29:59.547Z,98000.00
2019-04-10T07:32:43.284Z,97997.00
2019-04-10T07:35:23.692Z,98026.00
2019-04-10T07:38:05.613Z,97932.00
2019-04-10T07:40:47.089Z,98012.00
2019-04-10T07:43:29.466Z,97922.00
2019-04-10T07:46:11.234Z,98043.00
2019-04-10T07:48:52.520Z,98004.00
2019-04-10T07:51:34.116Z,98015.00
2019-04-10T07:54:20.446Z,98015.00
2019-04-10T07:56:58.368Z,97985.00
2019-04-10T07:59:39.007Z,97986.00
2019-04-10T08:02:21.081Z,98031.00
2019-04-10T08:05:02.409Z,98014.00
2019-04-10T08:07:43.785Z,97953.00
2019-04-10T08:10:26.296Z,98023.00
2019-04-10T08:13:07.284Z,98045.00
2019-04-10T08:15:48.148Z,98021.00
2019-04-10T08:18:29.619Z,98032.00
2019-04-10T08:21:11.312Z,98025.00
2019-04-10T08:23:53.047Z,98076.00
2019-04-10T08:26:34.217Z,98009.00
2019-04-10T08:29:14.858Z,98040.00
2019-04-10T08:31:55.997Z,98038.00
2019-04-10T08:34:37.168Z,98037.00
2019-04-10T08:37:18.951Z,98043.00
2019-04-10T08:40:00.515Z,98045.00
2019-04-10T08:42:44.597Z,98084.00
2019-04-10T08:45:23.724Z,98085.00
2019-04-10T08:48:05.763Z,98040.00
2019-04-10T08:50:47.255Z,98097.00
2019-04-10T08:53:28.696Z,98040.00
2019-04-10T08:56:10.651Z,98071.00
2019-04-10T08:58:52.238Z,98047.00
2019-04-10T09:01:33.509Z,98056.00
2019-04-10T09:04:14.680Z,98040.00
2019-04-10T09:06:56.148Z,98042.00
2019-04-10T09:09:37.470Z,98063.00
2019-04-10T09:12:18.150Z,98050.00
2019-04-10T09:14:59.313Z,98089.00
2019-04-10T09:17:40.342Z,98042.00
2019-04-10T09:20:21.119Z,97948.00
2019-04-10T09:23:22.092Z,98075.00
2019-04-10T09:25:45.330Z,98053.00
2019-04-10T09:28:27.006Z,98059.00
2019-04-10T09:31:09.313Z,98092.00
2019-04-10T09:33:51.483Z,98007.00
2019-04-10T09:36:33.319Z,97953.00
2019-04-10T09:39:14.947Z,98096.00
2019-04-10T09:41:56.450Z,98055.00
2019-04-10T09:44:37.968Z,98088.00
2019-04-10T09:47:19.083Z,98026.00
2019-04-10T09:49:59.826Z,98018.00
2019-04-10T09:52:41.273Z,98024.00
2019-04-10T09:55:22.861Z,98061.00
2019-04-10T09:58:03.616Z,98049.00
2019-04-10T10:00:44.586Z,98060.00
2019-04-10T10:03:26.397Z,97993.00
2019-04-10T10:06:08.823Z,98058.00
2019-04-10T10:08:52.202Z,98104.00
2019-04-10T10:11:34.109Z,98053.00
2019-04-10T10:14:15.352Z,98053.00
2019-04-10T10:16:56.055Z,98055.00
2019-04-10T10:19:36.769Z,98053.00
2019-04-10T10:22:17.540Z,98072.00
2019-04-10T10:24:59.375Z,98051.00
2019-04-10T10:27:40.797Z,98077.00
2019-04-10T10:30:21.485Z,98047.00
2019-04-10T10:33:03.642Z,98058.00
2019-04-10T10:35:45.286Z,98087.00
2019-04-10T10:38:27.271Z,98044.00
2019-04-10T10:41:08.817Z,98070.00
2019-04-10T10:43:50.913Z,98049.00
2019-04-10T10:46:33.483Z,98047.00
2019-04-10T10:49:15.891Z,98095.00
2019-04-10T10:51:57.280Z,98085.00
2019-04-10T10:54:38.393Z,98082.00
2019-04-10T10:57:19.352Z,98044.00
2019-04-10T11:00:00.575Z,98036.00
2019-04-10T11:02:41.872Z,98038.00
2019-04-10T11:05:23.169Z,98031.00
2019-04-10T11:08:05.362Z,98037.00
2019-04-10T11:10:50.724Z,98122.00
2019-04-10T11:13:30.763Z,98042.00
2019-04-10T11:16:13.074Z,98042.00
2019-04-10T11:18:55.082Z,98035.00
2019-04-10T11:21:36.144Z,98050.00
2019-04-10T11:24:17.273Z,98046.00
2019-04-10T11:26:58.495Z,98089.00
2019-04-10T11:29:39.194Z,98038.00
2019-04-10T11:32:22.065Z,98032.00
2019-04-10T11:35:04.520Z,98040.00
2019-04-10T11:37:49.681Z,98036.00
2019-04-10T11:40:29.701Z,98080.00
2019-04-10T11:43:12.562Z,98047.00
2019-04-10T11:45:58.512Z,98046.00
2019-04-10T11:48:39.124Z,97965.00
2019-04-10T11:51:20.915Z,98076.00
2019-04-10T11:54:05.376Z,98075.00
2019-04-10T11:56:48.247Z,98038.00
2019-04-10T11:59:28.820Z,98055.00
2019-04-10T12:02:12.005Z,97990.00
2019-04-10T12:04:57.605Z,98102.00
2019-04-10T12:08:00.179Z,98045.00
2019-04-10T12:13:01.990Z,98016.00
2019-04-10T12:15:43.029Z,98048.00
2019-04-10T12:18:24.706Z,98095.00
2019-04-10T12:21:05.427Z,98057.00
2019-04-10T12:23:47.367Z,98055.00
2019-04-10T12:26:28.910Z,98067.00
2019-04-10T12:29:10.748Z,98064.00
2019-04-10T12:31:52.347Z,98061.00
2019-04-10T12:34:34.021Z,98058.00
2019-04-10T12:37:15.398Z,98052.00
2019-04-10T12:39:57.129Z,98055.00
2019-04-10T12:42:38.692Z,98050.00
2019-04-10T12:45:20.104Z,98073.00
2019-04-10T12:48:02.107Z,98051.00
2019-04-10T12:50:43.401Z,98094.00
2019-04-10T12:53:24.383Z,98064.00
2019-04-10T12:56:06.054Z,98061.00
2019-04-10T12:58:47.184Z,98094.00
2019-04-10T13:01:28.802Z,98055.00
2019-04-10T13:04:10.358Z,98068.00
2019-04-10T13:06:52.570Z,98057.00
2019-04-10T13:09:34.237Z,98082.00
2019-04-10T13:12:15.440Z,98067.00
2019-04-10T13:14:57.099Z,98088.00
2019-04-10T13:17:38.576Z,98045.00
2019-04-10T13:20:19.941Z,98049.00
2019-04-10T13:23:00.750Z,98076.00
2019-04-10T13:25:42.770Z,98087.00
2019-04-10T13:28:25.532Z,98058.00
2019-04-10T13:31:06.438Z,98047.00
2019-04-10T13:33:48.917Z,98045.00
2019-04-10T13:36:31.182Z,98041.00
2019-04-10T13:39:12.846Z,98002.00
2019-04-10T13:41:53.919Z,98097.00
2019-04-10T13:44:35.357Z,98049.00
2019-04-10T13:47:17.480Z,98043.00
2019-04-10T13:49:58.681Z,98040.00
2019-04-10T13:52:41.264Z,98046.00
2019-04-10T13:55:22.591Z,97968.00
2019-04-10T13:58:03.954Z,97983.00
2019-04-10T14:00:45.099Z,98046.00
2019-04-10T14:03:26.790Z,98052.00
2019-04-10T14:06:07.579Z,98060.00
2019-04-10T14:09:10.063Z,98085.00
2019-04-10T14:11:31.496Z,98038.00
2019-04-10T14:14:12.695Z,98049.00
2019-04-10T14:16:53.615Z,98044.00
2019-04-10T14:19:34.625Z,98056.00
2019-04-10T14:22:16.362Z,98037.00
2019-04-10T14:24:58.884Z,98002.00
2019-04-10T14:27:40.549Z,98041.00
2019-04-10T14:33:16.549Z,98080.00
2019-04-10T14:35:57.835Z,97968.00
2019-04-10T14:38:39.266Z,98125.00
2019-04-10T14:41:22.004Z,98085.00
2019-04-10T14:44:04.097Z,98044.00
2019-04-10T14:46:46.350Z,98043.00
2019-04-10T14:49:27.593Z,98046.00
2019-04-10T14:52:08.777Z,98087.00
2019-04-10T14:54:50.308Z,98050.00
2019-04-10T14:57:31.807Z,98052.00
2019-04-10T15:03:06.433Z,98065.00
2019-04-10T15:05:51.469Z,97985.00
2019-04-10T15:08:31.421Z,97959.00
2019-04-10T15:11:13.934Z,98061.00
2019-04-10T15:13:55.571Z,98099.00
2019-04-10T15:16:36.903Z,98064.00
2019-04-10T15:19:18.500Z,98061.00
2019-04-10T15:21:59.410Z,98071.00
2019-04-10T15:24:40.087Z,98063.00
2019-04-10T15:27:21.560Z,98094.00
2019-04-10T15:30:04.226Z,98094.00
2019-04-10T15:32:45.479Z,98111.00
2019-04-10T15:35:26.589Z,98073.00
2019-04-10T15:38:07.981Z,98072.00
2019-04-10T15:40:50.365Z,98084.00
2019-04-10T15:43:31.139Z,98110.00
2019-04-10T15:46:12.917Z,98077.00
2019-04-10T15:48:54.980Z,98116.00
2019-04-10T15:51:37.009Z,98083.00
2019-04-10T15:54:18.143Z,98086.00
2019-04-10T15:56:58.940Z,98096.00
2019-04-10T15:59:40.683Z,98088.00
2019-04-10T16:02:22.311Z,98130.00
2019-04-10T16:05:04.772Z,98187.00
2019-04-10T16:07:46.863Z,98122.00
2019-04-10T16:10:47.698Z,98072.00
2019-04-10T16:13:48.497Z,98114.00
2019-04-10T16:16:48.963Z,98147.00
2019-04-10T16:19:47.076Z,98113.00
2019-04-10T16:22:35.285Z,98229.00
2019-04-10T16:25:27.822Z,98055.00
2019-04-10T16:28:11.102Z,98048.00
2019-04-10T16:30:51.928Z,98175.00
2019-04-10T16:33:33.558Z,98038.00
2019-04-10T16:36:14.216Z,98116.00
2019-04-10T16:38:55.421Z,98121.00
2019-04-10T16:41:37.500Z,98125.00
2019-04-10T16:44:19.207Z,98231.00
2019-04-10T16:47:01.520Z,98114.00
2019-04-10T16:49:42.312Z,98122.00
2019-04-10T16:52:25.037Z,98134.00
2019-04-10T16:55:06.362Z,98133.00
2019-04-10T16:57:47.928Z,98139.00
2019-04-10T17:00:29.202Z,98179.00
2019-04-10T17:03:10.049Z,98151.00
2019-04-10T17:05:51.840Z,98154.00
2019-04-10T17:08:32.516Z,98178.00
2019-04-10T17:11:14.604Z,98186.00
2019-04-10T17:13:55.658Z,98156.00
2019-04-10T17:16:37.703Z,98194.00
2019-04-10T17:19:19.677Z,98127.00
2019-04-10T17:22:00.704Z,98073.00
2019-04-10T17:24:42.102Z,98213.00
2019-04-10T17:27:23.632Z,98166.00
2019-04-10T17:30:05.402Z,98169.00
2019-04-10T17:32:46.632Z,98085.00
2019-04-10T17:35:27.799Z,98188.00
2019-04-10T17:38:10.161Z,98215.00
2019-04-10T17:40:53.857Z,98230.00
2019-04-10T17:43:34.920Z,98179.00
2019-04-10T17:46:17.359Z,98200.00
2019-04-10T17:48:58.970Z,98228.00
2019-04-10T17:51:41.759Z,98210.00
2019-04-10T17:54:23.379Z,98234.00
2019-04-10T17:57:04.507Z,98217.00
2019-04-10T17:59:46.827Z,98217.00
2019-04-10T18:02:28.152Z,98263.00
2019-04-10T18:05:08.805Z,98222.00
2019-04-10T18:07:49.674Z,98227.00
2019-04-10T18:10:41.169Z,98236.00
2019-04-10T18:13:13.398Z,98240.00
2019-04-10T18:15:55.515Z,98245.00
2019-04-10T18:18:38.004Z,98262.00
2019-04-10T18:21:20.279Z,98265.00
2019-04-10T18:24:02.040Z,98294.00
2019-04-10T18:26:43.703Z,98297.00
2019-04-10T18:29:25.362Z,98278.00
2019-04-10T18:32:07.446Z,98272.00
2019-04-10T18:34:49.974Z,98234.00
2019-04-10T18:37:31.553Z,98283.00
2019-04-10T18:40:14.896Z,98280.00
2019-04-10T18:42:57.620Z,98326.00
2019-04-10T18:45:40.891Z,98297.00
2019-04-10T18:48:21.344Z,98307.00
2019-04-10T18:51:02.906Z,98299.00
2019-04-10T18:53:43.975Z,98310.00
2019-04-10T18:56:25.081Z,98304.00
2019-04-10T19:02:23.432Z,98355.00
2019-04-10T19:08:05.697Z,98313.00
2019-04-10T19:10:47.434Z,98326.00
2019-04-10T19:13:28.664Z,98345.00
2019-04-10T19:16:10.889Z,98335.00
2019-04-10T19:18:52.242Z,98324.00
2019-04-10T19:21:34.108Z,98268.00
2019-04-10T19:24:15.600Z,98334.00
2019-04-10T19:26:57.879Z,98342.00
2019-04-10T19:29:38.905Z,98349.00
2019-04-10T19:32:26.698Z,98258.00
2019-04-10T19:35:08.815Z,98378.00
2019-04-10T19:37:51.493Z,98393.00
2019-04-10T19:40:33.972Z,98350.00
2019-04-10T19:43:15.957Z,98398.00
2019-04-10T19:45:56.730Z,98456.00
2019-04-10T19:48:39.381Z,98381.00
2019-04-10T19:51:21.830Z,98343.00
2019-04-10T19:54:05.514Z,98362.00
2019-04-10T19:56:45.261Z,98409.00
2019-04-10T19:59:27.098Z,98374.00
2019-04-10T20:02:08.778Z,98406.00
2019-04-10T20:04:50.577Z,98367.00
2019-04-10T20:07:31.805Z,98316.00
2019-04-10T20:10:12.986Z,98371.00
2019-04-10T20:12:55.039Z,98379.00
2019-04-10T20:15:36.640Z,98376.00
2019-04-10T20:18:17.443Z,98379.00
2019-04-10T20:20:58.049Z,98376.00
2019-04-10T20:23:40.388Z,98265.00
2019-04-10T20:26:23.057Z,98356.00
2019-04-10T20:29:04.789Z,98373.00
2019-04-10T20:31:47.718Z,98374.00
2019-04-10T20:34:29.631Z,98272.00
2019-04-10T20:37:11.947Z,98386.00
2019-04-10T20:39:53.870Z,98427.00
2019-04-10T20:42:35.351Z,98385.00
2019-04-10T20:45:16.028Z,98446.00
2019-04-10T20:47:58.130Z,98392.00
2019-04-10T20:50:39.689Z,98389.00
2019-04-10T20:53:20.728Z,98441.00
2019-04-10T20:56:02.304Z,98390.00
2019-04-10T20:58:43.222Z,98394.00
2019-04-10T21:01:24.527Z,98440.00
2019-04-10T21:04:05.662Z,98402.00
2019-04-10T21:06:46.490Z,98397.00
2019-04-10T21:09:27.800Z,98443.00
2019-04-10T21:12:12.842Z,98406.00
2019-04-10T21:14:52.470Z,98395.00
2019-04-10T21:17:34.086Z,98440.00
2019-04-10T21:20:15.933Z,98393.00
2019-04-10T21:22:57.694Z,98371.00
2019-04-10T21:25:39.368Z,98421.00
2019-04-10T21:28:20.666Z,98406.00
2019-04-10T21:31:22.242Z,98406.00
2019-04-10T21:37:08.034Z,98414.00
2019-04-10T21:39:50.016Z,98367.00
2019-04-10T21:42:31.565Z,98406.00
2019-04-10T21:45:13.723Z,98417.00
2019-04-10T21:47:54.717Z,98419.00
2019-04-10T21:50:35.615Z,98424.00
2019-04-10T21:53:18.390Z,98408.00
2019-04-10T21:55:59.956Z,98418.00
2019-04-10T21:58:40.892Z,98422.00
2019-04-10T22:01:22.152Z,98414.00
2019-04-10T22:04:04.689Z,98453.00
2019-04-10T22:07:07.825Z,98424.00
2019-04-10T22:10:13.502Z,98431.00
2019-04-10T22:12:55.493Z,98426.00
2019-04-10T22:15:39.526Z,98468.00
2019-04-10T22:18:21.129Z,98354.00
2019-04-10T22:21:02.431Z,98435.00
2019-04-10T22:23:44.754Z,98474.00
2019-04-10T22:26:25.725Z,98352.00
2019-04-10T22:29:07.634Z,98434.00
2019-04-10T22:31:49.240Z,98349.00
2019-04-10T22:34:30.596Z,98436.00
2019-04-10T22:37:12.052Z,98439.00
2019-04-10T22:39:52.832Z,98445.00
2019-04-10T22:42:40.038Z,98440.00
2019-04-10T22:45:16.741Z,98479.00
2019-04-10T22:47:58.346Z,98444.00
2019-04-10T22:50:39.251Z,98482.00
2019-04-10T22:53:21.375Z,98465.00
2019-04-10T22:56:02.602Z,98452.00
2019-04-10T22:58:44.221Z,98446.00
2019-04-10T23:01:27.040Z,98475.00
2019-04-10T23:04:08.601Z,98457.00
2019-04-10T23:06:49.486Z,98432.00
2019-04-10T23:09:30.885Z,98479.00
2019-04-10T23:12:11.690Z,98454.00
2019-04-10T23:14:53.234Z,98440.00
2019-04-10T23:17:34.845Z,98448.00
2019-04-10T23:20:16.505Z,98461.00
2019-04-10T23:22:58.851Z,98358.00
2019-04-10T23:25:40.628Z,98471.00
2019-04-10T23:28:23.087Z,98469.00
2019-04-10T23:31:05.593Z,98487.00
2019-04-10T23:33:48.164Z,98454.00
2019-04-10T23:36:29.908Z,98436.00
2019-04-10T23:39:12.251Z,98511.00
2019-04-10T23:41:53.042Z,98457.00
2019-04-10T23:44:34.882Z,98385.00
2019-04-10T23:47:16.519Z,98464.00
2019-04-10T23:49:57.571Z,98472.00
2019-04-10T23:52:40.072Z,98425.00
2019-04-10T23:55:21.915Z,98380.00
2019-04-10T23:58:03.061Z,98505.00
